Welkom op de weersite van Veghel e.o.

Webcam Veghel  Webcam Veghel


Steenuil Veghel  Steenuil Veghel


Onweer radar Meer informatie blitzortung!


Regen radar Meer informatie rain snow radar


U vindt ons ook hier:

Het Weer Aktueel

European Weather Network

Benelux Weer Netwerk

AWEKAS


METAR rapporten vliegvelden

   
EHAM - Amsterdam
Gewijzigd: 02-07-2022 16:25
Helder  
Helder  
   Wind: ZZW 16.7 km/h
Wind: ZZW 16.7 km/h
Temperatuur: 22°C
Dauwpunt: 10°C
Vochtigheid: 47%
Barometer: 1019 hPa
Zicht: meer dan 10 km
Bewolking: Helder ft
EHAM 021425Z 21009KT 170V260 CAVOK 22/10 Q1019 BECMG 28008KT
EHEH - Eindhoven
Gewijzigd: 02-07-2022 16:25
Bewolking  
Bewolking  
   Wind: ZZW 14.8 km/h
Wind: ZZW 14.8 km/h
Temperatuur: 25°C
Dauwpunt: 10°C
Vochtigheid: 39%
Barometer: 1019 hPa
Bewolking: Overcast
Zicht: meer dan 10 km
Bewolking: Bewolking 6200 ft
EHEH 021425Z AUTO 20008KT 170V260 9999 OVC062 25/10 Q1019 BLU NOSIG
EHGR - Gilze/Rijen
Gewijzigd: 02-07-2022 16:25
Bewolking  
Bewolking  
   Wind: ZZW 18.5 km/h
Wind: ZZW 18.5 km/h
Temperatuur: 24°C
Dauwpunt: 11°C
Vochtigheid: 44%
Barometer: 1019 hPa
Bewolking: Overcast
Zicht: meer dan 10 km
Bewolking: Grotendeels bewolkt 6600 ft,
Bewolking 15000 ft
EHGR 021425Z AUTO 20010KT 150V270 9999 BKN066 OVC150 24/11 Q1019 BLU NOSIG
EHBK - Maastricht
Gewijzigd: 02-07-2022 16:25
Helder  
Helder  
   Wind: Zuiden 11.1 km/h
Wind: Zuiden 11.1 km/h
Temperatuur: 25°C
Dauwpunt: 10°C
Vochtigheid: 39%
Barometer: 1019 hPa
Bewolking: Clear
Zicht: meer dan 10 km
Bewolking: Helder ft
EHBK 021425Z AUTO 19006KT 120V250 9999 NCD 25/10 Q1019 NOSIG
EHVK - Volkel
Gewijzigd: 02-07-2022 16:55
Bewolking  
Bewolking  
   Wind: Zuiden 9.3 km/h
Wind: Zuiden 9.3 km/h
Temperatuur: 24°C
Dauwpunt: 10°C
Vochtigheid: 41%
Barometer: 1019 hPa
Bewolking: Overcast
Zicht: meer dan 10 km
Bewolking: Grotendeels bewolkt 6400 ft,
Grotendeels bewolkt 6900 ft,
Bewolking 15000 ft
EHVK 021455Z AUTO 17005KT 140V250 9999 BKN064 BKN069 OVC150 24/10 Q1019 BLU
EHFS - Vlissingen
Gewijzigd: 02-07-2022 16:25
Gedeeltelijk bewolkt  
Gedeeltelijk bewolkt  
   Wind: Westen 20.4 km/h
Wind: Westen 20.4 km/h
Temperatuur: 21°C
Dauwpunt: 12°C
Vochtigheid: 57%
Barometer: 1019 hPa
Bewolking: Partly Cloudy
Zicht: meer dan 10 km
Bewolking: Gedeeltelijk bewolkt ft
EHFS 021425Z AUTO 28011KT 250V330 9999 NSC 21/12 Q1019

Script ontwikkeld door  Saratoga-weather.org Aangepast voor de template door  Weerstation Leuven

Apparatuur in gebruik:

Weerstation
Davis VP2

Weerprogramma
WeatherLink

Weercomputer
Sponsor

Webleverancier
My provider

Davis VP2

WeatherLink

Sponsor

My provider